sensor_id;sensor_type;location;lat;lon;timestamp;pressure;altitude;pressure_sealevel;temperature;humidity
65151;BME280;51918;51.856;0.150;2023-05-02T00:02:48;101311.16;;;11.01;74.43
65151;BME280;51918;51.856;0.150;2023-05-02T00:08:03;101312.25;;;10.98;74.52
65151;BME280;51918;51.856;0.150;2023-05-02T00:13:07;101314.16;;;10.96;75.19
65151;BME280;51918;51.856;0.150;2023-05-02T00:18:33;101316.22;;;10.93;75.47
65151;BME280;51918;51.856;0.150;2023-05-02T00:23:34;101317.63;;;10.87;75.74
65151;BME280;51918;51.856;0.150;2023-05-02T00:28:34;101321.06;;;10.78;75.80
65151;BME280;51918;51.856;0.150;2023-05-02T00:33:36;101322.56;;;10.70;75.89
65151;BME280;51918;51.856;0.150;2023-05-02T00:38:49;101338.56;;;10.64;76.51
65151;BME280;51918;51.856;0.150;2023-05-02T00:49:13;101344.19;;;10.50;77.74
65151;BME280;51918;51.856;0.150;2023-05-02T00:54:23;101355.97;;;10.43;78.25
65151;BME280;51918;51.856;0.150;2023-05-02T00:59:24;101349.47;;;10.39;79.13
65151;BME280;51918;51.856;0.150;2023-05-02T01:04:56;101356.50;;;10.37;79.99
65151;BME280;51918;51.856;0.150;2023-05-02T01:10:08;101348.97;;;10.35;79.90
65151;BME280;51918;51.856;0.150;2023-05-02T01:15:46;101363.97;;;10.40;80.70
65151;BME280;51918;51.856;0.150;2023-05-02T01:21:22;101367.47;;;10.48;80.59
65151;BME280;51918;51.856;0.150;2023-05-02T01:26:31;101370.28;;;10.55;80.51
65151;BME280;51918;51.856;0.150;2023-05-02T01:31:54;101373.78;;;10.64;80.28
65151;BME280;51918;51.856;0.150;2023-05-02T01:37:02;101372.41;;;10.69;79.65
65151;BME280;51918;51.856;0.150;2023-05-02T01:42:05;101379.72;;;10.64;79.34
65151;BME280;51918;51.856;0.150;2023-05-02T01:47:08;101378.13;;;10.63;79.59
65151;BME280;51918;51.856;0.150;2023-05-02T01:52:26;101383.13;;;10.65;79.66
65151;BME280;51918;51.856;0.150;2023-05-02T01:58:02;101392.59;;;10.64;79.65
65151;BME280;51918;51.856;0.150;2023-05-02T02:03:06;101400.22;;;10.56;78.98
65151;BME280;51918;51.856;0.150;2023-05-02T02:08:07;101408.19;;;10.53;79.73
65151;BME280;51918;51.856;0.150;2023-05-02T02:13:15;101408.75;;;10.57;81.17
65151;BME280;51918;51.856;0.150;2023-05-02T02:18:20;101415.50;;;10.58;82.20
65151;BME280;51918;51.856;0.150;2023-05-02T02:23:42;101421.44;;;10.58;82.61
65151;BME280;51918;51.856;0.150;2023-05-02T02:28:47;101437.56;;;10.70;82.81
65151;BME280;51918;51.856;0.150;2023-05-02T02:33:49;101431.41;;;10.81;82.63
65151;BME280;51918;51.856;0.150;2023-05-02T02:38:53;101432.22;;;10.81;82.89
65151;BME280;51918;51.856;0.150;2023-05-02T02:49:26;101455.25;;;10.83;81.95
65151;BME280;51918;51.856;0.150;2023-05-02T02:54:34;101460.13;;;10.86;82.16
65151;BME280;51918;51.856;0.150;2023-05-02T02:59:42;101457.94;;;10.91;81.32
65151;BME280;51918;51.856;0.150;2023-05-02T03:04:50;101460.38;;;10.93;81.15
65151;BME280;51918;51.856;0.150;2023-05-02T03:09:52;101465.50;;;11.02;81.01
65151;BME280;51918;51.856;0.150;2023-05-02T03:14:54;101472.91;;;11.05;80.89
65151;BME280;51918;51.856;0.150;2023-05-02T03:20:02;101484.75;;;10.98;80.80
65151;BME280;51918;51.856;0.150;2023-05-02T03:25:04;101483.75;;;11.09;80.48
65151;BME280;51918;51.856;0.150;2023-05-02T03:30:06;101488.47;;;11.14;80.59
65151;BME280;51918;51.856;0.150;2023-05-02T03:35:08;101488.22;;;11.17;80.21
65151;BME280;51918;51.856;0.150;2023-05-02T03:40:10;101498.66;;;11.15;80.32
65151;BME280;51918;51.856;0.150;2023-05-02T03:45:10;101506.25;;;11.17;80.19
65151;BME280;51918;51.856;0.150;2023-05-02T03:50:12;101507.59;;;11.21;79.68
65151;BME280;51918;51.856;0.150;2023-05-02T03:55:13;101511.63;;;11.23;79.64
65151;BME280;51918;51.856;0.150;2023-05-02T04:00:14;101515.69;;;11.26;79.14
65151;BME280;51918;51.856;0.150;2023-05-02T04:05:16;101517.47;;;11.16;78.90
65151;BME280;51918;51.856;0.150;2023-05-02T04:10:17;101522.94;;;11.13;78.86
65151;BME280;51918;51.856;0.150;2023-05-02T04:15:17;101521.84;;;11.05;78.68
65151;BME280;51918;51.856;0.150;2023-05-02T04:20:19;101526.91;;;10.97;79.02
65151;BME280;51918;51.856;0.150;2023-05-02T04:25:20;101535.94;;;11.01;78.91
65151;BME280;51918;51.856;0.150;2023-05-02T04:30:21;101539.88;;;11.05;78.67
65151;BME280;51918;51.856;0.150;2023-05-02T04:35:23;101551.69;;;10.98;78.43
65151;BME280;51918;51.856;0.150;2023-05-02T04:40:24;101552.06;;;11.03;78.52
65151;BME280;51918;51.856;0.150;2023-05-02T04:45:24;101550.47;;;11.02;78.46
65151;BME280;51918;51.856;0.150;2023-05-02T04:50:26;101553.97;;;11.01;78.65
65151;BME280;51918;51.856;0.150;2023-05-02T04:55:27;101557.91;;;10.96;78.36
65151;BME280;51918;51.856;0.150;2023-05-02T05:00:28;101561.59;;;10.93;78.71
65151;BME280;51918;51.856;0.150;2023-05-02T05:05:30;101570.13;;;10.84;79.32
65151;BME280;51918;51.856;0.150;2023-05-02T05:10:30;101571.34;;;10.80;79.54
65151;BME280;51918;51.856;0.150;2023-05-02T05:15:31;101583.94;;;10.73;79.99
65151;BME280;51918;51.856;0.150;2023-05-02T05:20:33;101583.94;;;10.73;80.07
65151;BME280;51918;51.856;0.150;2023-05-02T05:25:34;101598.44;;;10.84;79.40
65151;BME280;51918;51.856;0.150;2023-05-02T05:30:34;101601.00;;;10.84;79.50
65151;BME280;51918;51.856;0.150;2023-05-02T05:35:36;101610.34;;;10.95;79.04
65151;BME280;51918;51.856;0.150;2023-05-02T05:40:37;101613.34;;;11.00;78.51
65151;BME280;51918;51.856;0.150;2023-05-02T05:45:38;101625.00;;;10.94;78.76
65151;BME280;51918;51.856;0.150;2023-05-02T05:50:40;101631.34;;;11.09;78.42
65151;BME280;51918;51.856;0.150;2023-05-02T05:55:41;101630.25;;;11.22;78.05
65151;BME280;51918;51.856;0.150;2023-05-02T06:00:41;101644.34;;;11.27;77.45
65151;BME280;51918;51.856;0.150;2023-05-02T06:05:43;101641.09;;;11.35;77.12
65151;BME280;51918;51.856;0.150;2023-05-02T06:10:44;101658.03;;;11.47;76.78
65151;BME280;51918;51.856;0.150;2023-05-02T06:15:44;101661.41;;;11.48;76.01
65151;BME280;51918;51.856;0.150;2023-05-02T06:20:46;101673.59;;;11.46;75.60
65151;BME280;51918;51.856;0.150;2023-05-02T06:25:47;101668.03;;;11.60;75.32
65151;BME280;51918;51.856;0.150;2023-05-02T06:30:56;101683.75;;;11.67;75.27
65151;BME280;51918;51.856;0.150;2023-05-02T06:35:58;101684.16;;;11.62;75.59
65151;BME280;51918;51.856;0.150;2023-05-02T06:40:59;101679.56;;;11.56;74.99
65151;BME280;51918;51.856;0.150;2023-05-02T06:45:59;101677.91;;;11.65;74.22
65151;BME280;51918;51.856;0.150;2023-05-02T06:51:02;101690.38;;;11.79;73.33
65151;BME280;51918;51.856;0.150;2023-05-02T06:56:03;101688.84;;;11.86;72.37
65151;BME280;51918;51.856;0.150;2023-05-02T07:01:04;101686.16;;;11.78;72.36
65151;BME280;51918;51.856;0.150;2023-05-02T07:06:06;101702.59;;;11.77;71.36
65151;BME280;51918;51.856;0.150;2023-05-02T07:11:06;101709.38;;;11.68;70.92
65151;BME280;51918;51.856;0.150;2023-05-02T07:16:07;101710.44;;;11.85;70.97
65151;BME280;51918;51.856;0.150;2023-05-02T07:21:12;101706.22;;;11.84;69.65
65151;BME280;51918;51.856;0.150;2023-05-02T07:26:12;101715.16;;;11.90;69.87
65151;BME280;51918;51.856;0.150;2023-05-02T07:31:13;101711.53;;;12.20;68.43
65151;BME280;51918;51.856;0.150;2023-05-02T07:36:15;101710.19;;;12.44;67.43
65151;BME280;51918;51.856;0.150;2023-05-02T07:41:16;101709.88;;;12.57;67.22
65151;BME280;51918;51.856;0.150;2023-05-02T07:46:16;101714.25;;;12.92;66.47
65151;BME280;51918;51.856;0.150;2023-05-02T07:51:19;101724.50;;;13.02;65.67
65151;BME280;51918;51.856;0.150;2023-05-02T07:56:19;101715.56;;;13.14;65.08
65151;BME280;51918;51.856;0.150;2023-05-02T08:01:20;101726.78;;;12.87;63.77
65151;BME280;51918;51.856;0.150;2023-05-02T08:06:24;101734.81;;;12.84;65.35
65151;BME280;51918;51.856;0.150;2023-05-02T08:11:25;101741.56;;;13.12;64.18
65151;BME280;51918;51.856;0.150;2023-05-02T08:16:25;101741.03;;;13.27;64.25
65151;BME280;51918;51.856;0.150;2023-05-02T08:21:27;101726.44;;;13.62;63.27
65151;BME280;51918;51.856;0.150;2023-05-02T08:26:28;101741.31;;;13.68;62.83
65151;BME280;51918;51.856;0.150;2023-05-02T08:31:29;101735.28;;;13.77;61.66
65151;BME280;51918;51.856;0.150;2023-05-02T08:36:31;101733.97;;;13.55;60.16
65151;BME280;51918;51.856;0.150;2023-05-02T08:41:32;101741.13;;;13.61;60.44
65151;BME280;51918;51.856;0.150;2023-05-02T08:46:35;101745.53;;;13.69;60.69
65151;BME280;51918;51.856;0.150;2023-05-02T08:51:37;101754.69;;;13.63;59.44
65151;BME280;51918;51.856;0.150;2023-05-02T08:56:39;101766.28;;;13.51;60.01
65151;BME280;51918;51.856;0.150;2023-05-02T09:01:40;101777.34;;;13.43;59.36
65151;BME280;51918;51.856;0.150;2023-05-02T09:06:45;101788.19;;;12.93;60.15
65151;BME280;51918;51.856;0.150;2023-05-02T09:11:46;101795.06;;;13.20;60.58
65151;BME280;51918;51.856;0.150;2023-05-02T09:16:46;101800.09;;;13.57;59.90
65151;BME280;51918;51.856;0.150;2023-05-02T09:21:49;101804.19;;;13.86;57.11
65151;BME280;51918;51.856;0.150;2023-05-02T09:26:57;101802.81;;;14.00;56.74
65151;BME280;51918;51.856;0.150;2023-05-02T09:31:58;101810.34;;;14.11;56.54
65151;BME280;51918;51.856;0.150;2023-05-02T09:37:00;101811.50;;;14.17;55.82
65151;BME280;51918;51.856;0.150;2023-05-02T09:42:01;101815.25;;;14.23;55.48
65151;BME280;51918;51.856;0.150;2023-05-02T09:47:02;101818.13;;;14.46;55.25
65151;BME280;51918;51.856;0.150;2023-05-02T09:52:11;101835.59;;;14.52;53.29
65151;BME280;51918;51.856;0.150;2023-05-02T09:57:12;101826.63;;;14.72;54.66
65151;BME280;51918;51.856;0.150;2023-05-02T10:02:13;101835.84;;;15.09;52.50
65151;BME280;51918;51.856;0.150;2023-05-02T10:07:15;101817.78;;;14.83;53.27
65151;BME280;51918;51.856;0.150;2023-05-02T10:12:18;101824.16;;;15.05;51.71
65151;BME280;51918;51.856;0.150;2023-05-02T10:17:24;101814.47;;;15.15;52.31
65151;BME280;51918;51.856;0.150;2023-05-02T10:22:28;101804.59;;;16.01;52.79
65151;BME280;51918;51.856;0.150;2023-05-02T10:27:30;101812.78;;;16.29;49.91
65151;BME280;51918;51.856;0.150;2023-05-02T10:32:32;101816.38;;;16.68;49.12
65151;BME280;51918;51.856;0.150;2023-05-02T10:37:35;101816.91;;;17.17;48.09
65151;BME280;51918;51.856;0.150;2023-05-02T10:42:41;101826.13;;;16.66;46.49
65151;BME280;51918;51.856;0.150;2023-05-02T10:47:42;101818.66;;;16.62;48.02
65151;BME280;51918;51.856;0.150;2023-05-02T10:52:45;101820.84;;;16.82;46.54
65151;BME280;51918;51.856;0.150;2023-05-02T10:58:19;101829.25;;;16.53;47.60
65151;BME280;51918;51.856;0.150;2023-05-02T11:03:54;101831.56;;;16.48;46.75
65151;BME280;51918;51.856;0.150;2023-05-02T11:09:32;101842.72;;;16.00;48.47
65151;BME280;51918;51.856;0.150;2023-05-02T11:14:46;101842.72;;;15.92;48.40
65151;BME280;51918;51.856;0.150;2023-05-02T11:25:30;101852.31;;;15.84;48.64
65151;BME280;51918;51.856;0.150;2023-05-02T11:30:42;101851.44;;;16.24;48.69
65151;BME280;51918;51.856;0.150;2023-05-02T11:35:44;101856.25;;;16.44;47.11
65151;BME280;51918;51.856;0.150;2023-05-02T11:40:51;101852.59;;;16.69;47.39
65151;BME280;51918;51.856;0.150;2023-05-02T11:45:52;101857.19;;;16.90;46.73
65151;BME280;51918;51.856;0.150;2023-05-02T11:50:55;101848.81;;;16.72;46.04
65151;BME280;51918;51.856;0.150;2023-05-02T11:55:59;101860.47;;;16.84;46.74
65151;BME280;51918;51.856;0.150;2023-05-02T12:01:10;101860.00;;;17.12;46.00
65151;BME280;51918;51.856;0.150;2023-05-02T12:06:12;101859.78;;;17.21;45.51
65151;BME280;51918;51.856;0.150;2023-05-02T12:11:15;101867.84;;;17.03;45.55
65151;BME280;51918;51.856;0.150;2023-05-02T12:16:16;101861.63;;;16.81;44.86
65151;BME280;51918;51.856;0.150;2023-05-02T12:21:17;101869.78;;;16.70;45.76
65151;BME280;51918;51.856;0.150;2023-05-02T12:26:21;101884.31;;;16.96;44.68
65151;BME280;51918;51.856;0.150;2023-05-02T12:31:22;101872.91;;;16.97;45.51
65151;BME280;51918;51.856;0.150;2023-05-02T12:36:23;101875.16;;;16.60;44.56
65151;BME280;51918;51.856;0.150;2023-05-02T12:41:35;101868.59;;;16.41;46.16
65151;BME280;51918;51.856;0.150;2023-05-02T12:46:37;101885.88;;;16.66;46.60
65151;BME280;51918;51.856;0.150;2023-05-02T12:51:38;101883.38;;;17.20;46.22
65151;BME280;51918;51.856;0.150;2023-05-02T12:56:40;101886.41;;;17.32;44.73
65151;BME280;51918;51.856;0.150;2023-05-02T13:01:41;101892.16;;;17.42;45.48
65151;BME280;51918;51.856;0.150;2023-05-02T13:06:41;101885.69;;;17.84;44.01
65151;BME280;51918;51.856;0.150;2023-05-02T13:11:43;101886.28;;;17.94;42.91
65151;BME280;51918;51.856;0.150;2023-05-02T13:16:44;101885.22;;;17.80;44.71
65151;BME280;51918;51.856;0.150;2023-05-02T13:21:45;101894.31;;;17.84;42.26
65151;BME280;51918;51.856;0.150;2023-05-02T13:26:47;101887.91;;;17.49;43.26
65151;BME280;51918;51.856;0.150;2023-05-02T13:31:48;101883.78;;;17.55;43.62
65151;BME280;51918;51.856;0.150;2023-05-02T13:36:48;101882.38;;;17.44;42.45
65151;BME280;51918;51.856;0.150;2023-05-02T13:41:50;101881.28;;;17.84;43.91
65151;BME280;51918;51.856;0.150;2023-05-02T13:46:51;101869.94;;;18.00;43.77
65151;BME280;51918;51.856;0.150;2023-05-02T13:51:52;101876.78;;;18.31;42.53
65151;BME280;51918;51.856;0.150;2023-05-02T13:56:54;101890.56;;;18.02;42.87
65151;BME280;51918;51.856;0.150;2023-05-02T14:01:55;101886.28;;;17.71;41.96
65151;BME280;51918;51.856;0.150;2023-05-02T14:06:55;101883.03;;;17.69;42.50
65151;BME280;51918;51.856;0.150;2023-05-02T14:11:58;101887.25;;;17.47;42.16
65151;BME280;51918;51.856;0.150;2023-05-02T14:16:58;101879.56;;;17.31;42.53
65151;BME280;51918;51.856;0.150;2023-05-02T14:21:59;101880.38;;;17.54;43.36
65151;BME280;51918;51.856;0.150;2023-05-02T14:27:01;101886.75;;;17.75;42.99
65151;BME280;51918;51.856;0.150;2023-05-02T14:32:02;101882.03;;;17.93;43.17
65151;BME280;51918;51.856;0.150;2023-05-02T14:37:03;101891.31;;;17.50;42.77
65151;BME280;51918;51.856;0.150;2023-05-02T14:42:05;101884.03;;;17.14;43.24
65151;BME280;51918;51.856;0.150;2023-05-02T14:47:06;101885.25;;;17.34;43.63
65151;BME280;51918;51.856;0.150;2023-05-02T14:52:07;101885.19;;;17.42;43.00
65151;BME280;51918;51.856;0.150;2023-05-02T14:57:09;101881.53;;;17.29;43.82
65151;BME280;51918;51.856;0.150;2023-05-02T15:02:10;101873.38;;;16.69;44.12
65151;BME280;51918;51.856;0.150;2023-05-02T15:07:10;101867.47;;;16.36;44.77
65151;BME280;51918;51.856;0.150;2023-05-02T15:12:12;101867.97;;;16.15;45.79
65151;BME280;51918;51.856;0.150;2023-05-02T15:17:13;101870.63;;;15.90;46.09
65151;BME280;51918;51.856;0.150;2023-05-02T15:22:14;101869.47;;;16.01;46.18
65151;BME280;51918;51.856;0.150;2023-05-02T15:27:16;101874.81;;;16.24;45.63
65151;BME280;51918;51.856;0.150;2023-05-02T15:32:16;101880.16;;;16.23;45.65
65151;BME280;51918;51.856;0.150;2023-05-02T15:37:17;101876.88;;;16.37;45.59
65151;BME280;51918;51.856;0.150;2023-05-02T15:42:19;101879.66;;;16.11;45.41
65151;BME280;51918;51.856;0.150;2023-05-02T15:47:20;101870.59;;;16.07;45.89
65151;BME280;51918;51.856;0.150;2023-05-02T15:52:21;101878.53;;;15.72;46.34
65151;BME280;51918;51.856;0.150;2023-05-02T15:57:23;101880.16;;;15.73;46.82
65151;BME280;51918;51.856;0.150;2023-05-02T16:02:23;101884.25;;;15.92;46.94
65151;BME280;51918;51.856;0.150;2023-05-02T16:07:24;101876.91;;;16.04;46.45
65151;BME280;51918;51.856;0.150;2023-05-02T16:12:26;101878.41;;;15.90;46.56
65151;BME280;51918;51.856;0.150;2023-05-02T16:17:27;101889.28;;;15.86;46.82
65151;BME280;51918;51.856;0.150;2023-05-02T16:22:28;101883.44;;;15.92;47.01
65151;BME280;51918;51.856;0.150;2023-05-02T16:27:30;101883.59;;;15.90;46.59
65151;BME280;51918;51.856;0.150;2023-05-02T16:32:31;101870.47;;;15.84;46.75
65151;BME280;51918;51.856;0.150;2023-05-02T16:37:32;101877.25;;;15.60;47.19
65151;BME280;51918;51.856;0.150;2023-05-02T16:42:35;101875.47;;;15.69;47.26
65151;BME280;51918;51.856;0.150;2023-05-02T16:47:36;101866.53;;;15.71;48.06
65151;BME280;51918;51.856;0.150;2023-05-02T16:52:36;101870.28;;;15.77;47.65
65151;BME280;51918;51.856;0.150;2023-05-02T16:57:38;101872.50;;;15.39;47.76
65151;BME280;51918;51.856;0.150;2023-05-02T17:02:39;101864.41;;;15.26;48.58
65151;BME280;51918;51.856;0.150;2023-05-02T17:07:40;101865.31;;;15.00;49.15
65151;BME280;51918;51.856;0.150;2023-05-02T17:12:42;101868.94;;;14.81;49.54
65151;BME280;51918;51.856;0.150;2023-05-02T17:17:43;101868.41;;;14.77;49.95
65151;BME280;51918;51.856;0.150;2023-05-02T17:22:44;101874.00;;;14.56;50.63
65151;BME280;51918;51.856;0.150;2023-05-02T17:27:46;101871.41;;;14.56;50.67
65151;BME280;51918;51.856;0.150;2023-05-02T17:32:46;101870.38;;;14.49;50.40
65151;BME280;51918;51.856;0.150;2023-05-02T17:37:47;101870.94;;;14.27;50.75
65151;BME280;51918;51.856;0.150;2023-05-02T17:42:49;101867.06;;;14.05;50.60
65151;BME280;51918;51.856;0.150;2023-05-02T17:47:50;101870.59;;;14.04;50.71
65151;BME280;51918;51.856;0.150;2023-05-02T17:52:51;101883.38;;;13.79;50.72
65151;BME280;51918;51.856;0.150;2023-05-02T17:57:53;101872.47;;;13.57;51.29
65151;BME280;51918;51.856;0.150;2023-05-02T18:02:54;101866.97;;;13.25;51.94
65151;BME280;51918;51.856;0.150;2023-05-02T18:07:55;101863.44;;;13.08;52.14
65151;BME280;51918;51.856;0.150;2023-05-02T18:12:57;101870.44;;;12.88;52.50
65151;BME280;51918;51.856;0.150;2023-05-02T18:17:58;101877.81;;;13.10;52.05
65151;BME280;51918;51.856;0.150;2023-05-02T18:22:58;101882.09;;;13.20;51.68
65151;BME280;51918;51.856;0.150;2023-05-02T18:28:01;101895.31;;;12.89;51.88
65151;BME280;51918;51.856;0.150;2023-05-02T18:33:01;101886.91;;;12.87;52.26
65151;BME280;51918;51.856;0.150;2023-05-02T18:38:04;101882.75;;;12.66;52.35
65151;BME280;51918;51.856;0.150;2023-05-02T18:43:06;101878.75;;;12.34;52.80
65151;BME280;51918;51.856;0.150;2023-05-02T18:48:07;101883.53;;;12.00;53.70
65151;BME280;51918;51.856;0.150;2023-05-02T18:53:08;101875.16;;;11.88;53.88
65151;BME280;51918;51.856;0.150;2023-05-02T18:58:10;101879.34;;;11.60;55.09
65151;BME280;51918;51.856;0.150;2023-05-02T19:03:10;101876.47;;;11.34;55.68
65151;BME280;51918;51.856;0.150;2023-05-02T19:08:11;101885.28;;;11.31;55.38
65151;BME280;51918;51.856;0.150;2023-05-02T19:13:15;101889.97;;;11.17;55.97
65151;BME280;51918;51.856;0.150;2023-05-02T19:18:16;101894.50;;;11.03;56.03
65151;BME280;51918;51.856;0.150;2023-05-02T19:23:16;101913.94;;;10.77;56.98
65151;BME280;51918;51.856;0.150;2023-05-02T19:28:18;101906.97;;;10.67;57.05
65151;BME280;51918;51.856;0.150;2023-05-02T19:33:19;101904.72;;;10.53;57.65
65151;BME280;51918;51.856;0.150;2023-05-02T19:38:20;101914.41;;;10.40;57.92
65151;BME280;51918;51.856;0.150;2023-05-02T19:43:22;101921.63;;;10.46;57.96
65151;BME280;51918;51.856;0.150;2023-05-02T19:48:22;101929.03;;;10.39;58.50
65151;BME280;51918;51.856;0.150;2023-05-02T19:53:24;101927.34;;;10.28;58.09
65151;BME280;51918;51.856;0.150;2023-05-02T19:58:32;101937.97;;;10.03;59.13
65151;BME280;51918;51.856;0.150;2023-05-02T20:03:35;101939.88;;;9.90;58.75
65151;BME280;51918;51.856;0.150;2023-05-02T20:08:54;101940.44;;;9.93;58.92
65151;BME280;51918;51.856;0.150;2023-05-02T20:13:56;101959.88;;;9.75;58.72
65151;BME280;51918;51.856;0.150;2023-05-02T20:18:57;101950.88;;;9.69;59.37
65151;BME280;51918;51.856;0.150;2023-05-02T20:23:57;101967.09;;;9.69;59.15
65151;BME280;51918;51.856;0.150;2023-05-02T20:28:59;101965.94;;;9.62;59.30
65151;BME280;51918;51.856;0.150;2023-05-02T20:34:06;101976.38;;;9.38;59.85
65151;BME280;51918;51.856;0.150;2023-05-02T20:39:06;101978.00;;;9.39;59.67
65151;BME280;51918;51.856;0.150;2023-05-02T20:44:09;101984.44;;;9.34;60.60
65151;BME280;51918;51.856;0.150;2023-05-02T20:49:18;101986.06;;;9.23;60.90
65151;BME280;51918;51.856;0.150;2023-05-02T20:54:19;101986.63;;;9.16;61.35
65151;BME280;51918;51.856;0.150;2023-05-02T20:59:21;101977.31;;;9.15;61.11
65151;BME280;51918;51.856;0.150;2023-05-02T21:04:40;101988.72;;;8.99;61.48
65151;BME280;51918;51.856;0.150;2023-05-02T21:09:44;101971.44;;;8.90;61.97
65151;BME280;51918;51.856;0.150;2023-05-02T21:14:58;101969.31;;;8.84;62.70
65151;BME280;51918;51.856;0.150;2023-05-02T21:19:58;101974.22;;;8.76;62.95
65151;BME280;51918;51.856;0.150;2023-05-02T21:24:59;101963.72;;;8.68;62.82
65151;BME280;51918;51.856;0.150;2023-05-02T21:30:25;101963.69;;;8.56;63.29
65151;BME280;51918;51.856;0.150;2023-05-02T21:35:28;101955.50;;;8.51;63.74
65151;BME280;51918;51.856;0.150;2023-05-02T21:40:29;101944.53;;;8.49;63.73
65151;BME280;51918;51.856;0.150;2023-05-02T21:45:31;101940.31;;;8.37;64.66
65151;BME280;51918;51.856;0.150;2023-05-02T21:51:17;101940.22;;;8.25;64.51
65151;BME280;51918;51.856;0.150;2023-05-02T21:56:18;101932.66;;;8.24;65.06
65151;BME280;51918;51.856;0.150;2023-05-02T22:01:20;101939.47;;;8.12;65.29
65151;BME280;51918;51.856;0.150;2023-05-02T22:06:20;101929.91;;;8.03;65.50
65151;BME280;51918;51.856;0.150;2023-05-02T22:11:21;101917.84;;;7.92;66.01
65151;BME280;51918;51.856;0.150;2023-05-02T22:16:23;101923.31;;;7.88;66.32
65151;BME280;51918;51.856;0.150;2023-05-02T22:21:32;101930.38;;;7.84;66.33
65151;BME280;51918;51.856;0.150;2023-05-02T22:26:32;101940.97;;;7.79;66.44
65151;BME280;51918;51.856;0.150;2023-05-02T22:31:58;101943.25;;;7.71;67.04
65151;BME280;51918;51.856;0.150;2023-05-02T22:37:11;101960.78;;;7.64;67.03
65151;BME280;51918;51.856;0.150;2023-05-02T22:42:11;101952.81;;;7.56;67.24
65151;BME280;51918;51.856;0.150;2023-05-02T22:47:14;101941.69;;;7.45;67.31
65151;BME280;51918;51.856;0.150;2023-05-02T22:52:38;101953.78;;;7.42;67.68
65151;BME280;51918;51.856;0.150;2023-05-02T22:57:38;101953.06;;;7.40;67.61
65151;BME280;51918;51.856;0.150;2023-05-02T23:03:04;101949.25;;;7.33;68.29
65151;BME280;51918;51.856;0.150;2023-05-02T23:08:05;101951.53;;;7.25;68.44
65151;BME280;51918;51.856;0.150;2023-05-02T23:13:06;101965.56;;;7.19;68.84
65151;BME280;51918;51.856;0.150;2023-05-02T23:18:45;101953.28;;;7.12;68.79
65151;BME280;51918;51.856;0.150;2023-05-02T23:23:46;101946.03;;;7.06;69.60
65151;BME280;51918;51.856;0.150;2023-05-02T23:28:46;101953.91;;;7.02;69.69
65151;BME280;51918;51.856;0.150;2023-05-02T23:34:07;101941.41;;;6.98;69.83
65151;BME280;51918;51.856;0.150;2023-05-02T23:39:20;101937.53;;;6.92;70.62
65151;BME280;51918;51.856;0.150;2023-05-02T23:44:35;101945.59;;;6.86;70.58
65151;BME280;51918;51.856;0.150;2023-05-02T23:49:37;101953.88;;;6.77;70.46
65151;BME280;51918;51.856;0.150;2023-05-02T23:55:22;101950.09;;;6.70;71.27
